Sierra Leyre — C6DL3 — position and weather

sailwx.info

Track history (hours):
 
Tides and Currents Weather Stations Pressure Air Temp Water Temp Dewpoint Dewpoint Depression Visibility Wind Speed Wind Dir Waves Ship Positions

Sierra Leyre

Last reported at 2018-Jan-10 19:02 UTC. Time now 2018-Jan-24 04:09 UTC.
Position N 35°56' W 006°13'.
Warning: this ship's position is 13 days out of date.

Length 117 m; draft 4.5 m.

Type: Ship. MMSI: 311000709.

Date/timePositionNaut miles runAvg speedWind from/ knotsBaromVisibWave heightAir tempDewpointWater temp
2018-Jan-10 19:02N 35°56' W 006°13'113.0
2018-Jan-10 18:57N 35°57' W 006°13'612.2
2018-Jan-10 18:25N 35°57' W 006°05'512.1
2018-Jan-10 17:59N 35°57' W 005°58'612.6
2018-Jan-10 17:28N 35°57' W 005°50'612.5
2018-Jan-10 17:00N 35°57' W 005°43'611.6
2018-Jan-10 16:30N 35°57' W 005°36'510.5
2018-Jan-10 16:00N 35°59' W 005°30'5 9.6
2018-Jan-10 15:30N 36°01' W 005°24'4 8.6
2018-Jan-10 15:00N 36°04' W 005°20'2 3.1
2018-Jan-10 14:30N 36°03' W 005°19'4 8.4
2018-Jan-10 14:00N 35°60' W 005°16'510.4
2018-Jan-10 13:30N 35°55' W 005°14'1 2.9
2018-Jan-10 13:00N 35°56' W 005°16'5 8.4
2018-Jan-10 12:28N 35°56' W 005°10'  
Track history (hours):
 
Tides and Currents Weather Stations Pressure Air Temp Water Temp Dewpoint Dewpoint Depression Visibility Wind Speed Wind Dir Waves Ship Positions

Sierra Leyre

Last reported at 2018-Jan-10 19:02 UTC. Time now 2018-Jan-24 04:09 UTC.
Position N 35°56' W 006°13'.
Warning: this ship's position is 13 days out of date.

Length 117 m; draft 4.5 m.

Type: Ship. MMSI: 311000709.

Date/timePositionNaut miles runAvg speedWind from/ knotsBaromVisibWave heightAir tempDewpointWater temp
2018-Jan-10 19:02N 35°56' W 006°13'113.0
2018-Jan-10 18:57N 35°57' W 006°13'612.2
2018-Jan-10 18:25N 35°57' W 006°05'512.1
2018-Jan-10 17:59N 35°57' W 005°58'612.6
2018-Jan-10 17:28N 35°57' W 005°50'612.5
2018-Jan-10 17:00N 35°57' W 005°43'611.6
2018-Jan-10 16:30N 35°57' W 005°36'510.5
2018-Jan-10 16:00N 35°59' W 005°30'5 9.6
2018-Jan-10 15:30N 36°01' W 005°24'4 8.6
2018-Jan-10 15:00N 36°04' W 005°20'2 3.1
2018-Jan-10 14:30N 36°03' W 005°19'4 8.4
2018-Jan-10 14:00N 35°60' W 005°16'510.4
2018-Jan-10 13:30N 35°55' W 005°14'1 2.9
2018-Jan-10 13:00N 35°56' W 005°16'5 8.4
2018-Jan-10 12:28N 35°56' W 005°10'  

Dump ship's entire track history